createdAt,value
2023-08-14T00:00:38.154Z,99.90
2023-08-14T00:03:06.793Z,99.90
2023-08-14T00:05:35.348Z,99.90
2023-08-14T00:08:03.758Z,99.90
2023-08-14T00:10:33.414Z,99.90
2023-08-14T00:13:01.670Z,99.90
2023-08-14T00:15:30.117Z,99.90
2023-08-14T00:17:58.430Z,99.90
2023-08-14T00:20:26.865Z,99.90
2023-08-14T00:22:55.276Z,99.90
2023-08-14T00:25:23.927Z,99.90
2023-08-14T00:27:53.523Z,99.90
2023-08-14T00:30:22.212Z,99.90
2023-08-14T00:32:50.762Z,99.90
2023-08-14T00:35:19.173Z,99.90
2023-08-14T00:37:48.534Z,99.90
2023-08-14T00:40:18.825Z,99.90
2023-08-14T00:42:48.623Z,99.90
2023-08-14T00:45:18.872Z,99.90
2023-08-14T00:47:48.216Z,99.90
2023-08-14T00:50:17.528Z,99.90
2023-08-14T00:52:48.445Z,99.90
2023-08-14T00:55:20.696Z,99.90
2023-08-14T00:57:49.177Z,99.90
2023-08-14T01:00:19.018Z,99.90
2023-08-14T01:02:49.247Z,99.90
2023-08-14T01:05:18.062Z,99.90
2023-08-14T01:07:46.890Z,99.90
2023-08-14T01:10:15.278Z,99.90
2023-08-14T01:12:52.103Z,99.90
2023-08-14T01:15:27.880Z,99.90
2023-08-14T01:17:59.938Z,99.90
2023-08-14T01:20:31.401Z,99.90
2023-08-14T01:23:08.615Z,99.90
2023-08-14T01:25:39.893Z,99.90
2023-08-14T01:28:10.713Z,99.90
2023-08-14T01:30:39.397Z,99.90
2023-08-14T01:33:07.715Z,99.90
2023-08-14T01:35:41.374Z,99.90
2023-08-14T01:38:18.398Z,99.90
2023-08-14T01:40:55.282Z,99.90
2023-08-14T01:43:28.616Z,99.90
2023-08-14T01:45:58.701Z,99.90
2023-08-14T01:48:28.105Z,99.90
2023-08-14T01:50:58.340Z,99.90
2023-08-14T01:53:26.731Z,99.90
2023-08-14T01:55:55.371Z,99.90
2023-08-14T01:58:24.138Z,99.90
2023-08-14T02:00:52.423Z,99.90
2023-08-14T02:03:20.861Z,99.90
2023-08-14T02:05:49.190Z,99.90
2023-08-14T02:08:17.546Z,99.90
2023-08-14T02:10:47.673Z,99.90
2023-08-14T02:13:17.490Z,99.90
2023-08-14T02:15:47.670Z,99.90
2023-08-14T02:18:16.597Z,99.90
2023-08-14T02:20:48.468Z,99.90
2023-08-14T02:23:16.938Z,99.90
2023-08-14T02:25:46.013Z,99.90
2023-08-14T02:28:14.594Z,99.90
2023-08-14T02:30:44.249Z,99.90
2023-08-14T02:33:12.785Z,99.90
2023-08-14T02:35:42.437Z,99.90
2023-08-14T02:38:10.788Z,99.90
2023-08-14T02:40:40.303Z,99.90
2023-08-14T02:43:08.746Z,99.90
2023-08-14T02:45:37.413Z,99.90
2023-08-14T02:48:07.636Z,99.90
2023-08-14T02:50:36.012Z,99.90
2023-08-14T02:53:04.520Z,99.90
2023-08-14T02:55:33.073Z,99.90
2023-08-14T02:58:01.444Z,99.90
2023-08-14T03:00:29.863Z,99.90
2023-08-14T03:02:58.380Z,99.90
2023-08-14T03:05:28.206Z,99.90
2023-08-14T03:07:56.534Z,99.90
2023-08-14T03:10:26.757Z,99.90
2023-08-14T03:12:55.154Z,99.90
2023-08-14T03:15:23.362Z,99.90
2023-08-14T03:17:51.758Z,99.90
2023-08-14T03:20:20.138Z,99.90
2023-08-14T03:22:49.724Z,99.90
2023-08-14T03:25:18.061Z,99.90
2023-08-14T03:27:46.430Z,99.90
2023-08-14T03:30:15.350Z,99.90
2023-08-14T03:32:43.744Z,99.90
2023-08-14T03:35:12.404Z,99.90
2023-08-14T03:37:40.709Z,99.90
2023-08-14T03:40:11.259Z,99.90
2023-08-14T03:42:39.522Z,99.90
2023-08-14T03:45:09.645Z,99.90
2023-08-14T03:47:38.616Z,99.90
2023-08-14T03:50:07.896Z,99.90
2023-08-14T03:52:36.313Z,99.90
2023-08-14T03:55:04.745Z,99.90
2023-08-14T03:57:34.418Z,99.90
2023-08-14T04:00:02.833Z,99.90
2023-08-14T04:02:41.070Z,99.90
2023-08-14T04:05:09.932Z,99.90
2023-08-14T04:07:38.578Z,99.90
2023-08-14T04:10:07.815Z,99.90
2023-08-14T04:12:37.388Z,99.90
2023-08-14T04:15:15.418Z,99.90
2023-08-14T04:17:44.101Z,99.90
2023-08-14T04:20:13.121Z,99.90
2023-08-14T04:22:41.698Z,99.90
2023-08-14T04:25:10.627Z,99.90
2023-08-14T04:27:40.853Z,99.90
2023-08-14T04:30:10.070Z,99.90
2023-08-14T04:32:38.422Z,99.90
2023-08-14T04:35:07.892Z,99.90
2023-08-14T04:37:37.174Z,99.90
2023-08-14T04:40:07.027Z,99.90
2023-08-14T04:42:35.730Z,99.90
2023-08-14T04:45:06.339Z,99.90
2023-08-14T04:47:34.733Z,99.90
2023-08-14T04:50:03.810Z,99.90
2023-08-14T04:52:32.289Z,99.90
2023-08-14T04:55:00.699Z,99.90
2023-08-14T04:57:33.019Z,99.90
2023-08-14T05:00:01.759Z,99.90
2023-08-14T05:02:33.915Z,99.90
2023-08-14T05:05:03.066Z,99.90
2023-08-14T05:07:31.425Z,99.90
2023-08-14T05:09:59.862Z,99.90
2023-08-14T05:12:28.943Z,99.90
2023-08-14T05:14:57.293Z,99.90
2023-08-14T05:17:26.001Z,99.90
2023-08-14T05:19:55.721Z,99.90
2023-08-14T05:22:24.052Z,99.90
2023-08-14T05:24:52.416Z,99.90
2023-08-14T05:27:20.656Z,99.90
2023-08-14T05:29:49.376Z,99.90
2023-08-14T05:32:17.848Z,99.90
2023-08-14T05:34:46.471Z,99.90
2023-08-14T05:37:16.187Z,99.90
2023-08-14T05:39:44.544Z,99.90
2023-08-14T05:42:12.897Z,99.90
2023-08-14T05:44:41.347Z,99.90
2023-08-14T05:47:09.619Z,99.90
2023-08-14T05:49:39.067Z,99.90
2023-08-14T05:52:07.666Z,99.90
2023-08-14T05:54:37.335Z,99.90
2023-08-14T05:57:05.699Z,99.90
2023-08-14T05:59:34.749Z,99.90
2023-08-14T06:02:04.131Z,99.90
2023-08-14T06:04:34.540Z,99.90
2023-08-14T06:07:02.900Z,99.90
2023-08-14T06:09:31.346Z,99.90
2023-08-14T06:12:00.990Z,99.90
2023-08-14T06:14:29.231Z,99.90
2023-08-14T06:16:57.760Z,99.90
2023-08-14T06:19:26.143Z,99.90
2023-08-14T06:21:55.320Z,99.90
2023-08-14T06:24:23.776Z,99.90
2023-08-14T06:26:52.111Z,99.90
2023-08-14T06:29:21.697Z,99.90
2023-08-14T06:31:50.058Z,99.90
2023-08-14T06:34:18.602Z,99.90
2023-08-14T06:36:47.435Z,99.90
2023-08-14T06:39:15.801Z,99.90
2023-08-14T06:41:44.090Z,99.90
2023-08-14T06:44:14.996Z,99.90
2023-08-14T06:46:44.841Z,99.90
2023-08-14T06:49:13.103Z,99.90
2023-08-14T06:51:41.901Z,99.90
2023-08-14T06:54:10.270Z,99.90
2023-08-14T06:56:38.686Z,99.90
2023-08-14T06:59:06.955Z,99.90
2023-08-14T07:01:35.260Z,99.90
2023-08-14T07:04:05.926Z,99.90
2023-08-14T07:06:34.309Z,99.90
2023-08-14T07:09:03.106Z,99.90
2023-08-14T07:11:37.744Z,99.90
2023-08-14T07:14:06.686Z,99.90
2023-08-14T07:16:35.147Z,99.90
2023-08-14T07:19:05.031Z,99.90
2023-08-14T07:21:33.503Z,99.90
2023-08-14T07:24:01.896Z,99.90
2023-08-14T07:26:30.426Z,99.90
2023-08-14T07:28:58.662Z,99.90
2023-08-14T07:31:27.059Z,99.90
2023-08-14T07:33:55.246Z,99.90
2023-08-14T07:36:25.034Z,99.90
2023-08-14T07:38:53.327Z,99.90
2023-08-14T07:41:21.563Z,99.90
2023-08-14T07:43:49.969Z,99.90
2023-08-14T07:46:19.522Z,99.90
2023-08-14T07:48:47.890Z,99.90
2023-08-14T07:51:16.120Z,99.90
2023-08-14T07:53:45.794Z,99.90
2023-08-14T07:56:14.179Z,99.90
2023-08-14T07:58:42.834Z,99.90
2023-08-14T08:01:11.718Z,99.90
2023-08-14T08:03:40.035Z,99.90
2023-08-14T08:06:08.433Z,99.90
2023-08-14T08:08:36.899Z,99.90
2023-08-14T08:11:06.537Z,99.90
2023-08-14T08:13:34.958Z,99.90
2023-08-14T08:16:03.288Z,99.90
2023-08-14T08:18:31.909Z,99.90
2023-08-14T08:21:00.319Z,99.80
2023-08-14T08:23:28.632Z,91.40
2023-08-14T08:25:57.223Z,79.20
2023-08-14T08:28:27.068Z,76.20
2023-08-14T08:30:55.382Z,72.40
2023-08-14T08:33:27.412Z,74.70
2023-08-14T08:35:56.354Z,76.60
2023-08-14T08:38:24.837Z,73.40
2023-08-14T08:40:54.234Z,79.70
2023-08-14T08:43:24.728Z,72.20
2023-08-14T08:45:59.263Z,69.40
2023-08-14T08:48:34.826Z,64.70
2023-08-14T08:51:03.678Z,57.50
2023-08-14T08:53:32.640Z,55.40
2023-08-14T08:56:00.964Z,52.00
2023-08-14T08:58:29.545Z,49.70
2023-08-14T09:01:00.871Z,46.30
2023-08-14T09:03:29.333Z,45.20
2023-08-14T09:05:57.923Z,40.70
2023-08-14T09:08:26.291Z,42.00
2023-08-14T09:10:54.580Z,36.30
2023-08-14T09:13:31.466Z,34.40
2023-08-14T09:16:03.731Z,34.20
2023-08-14T09:18:32.867Z,34.90
2023-08-14T09:21:03.662Z,34.30
2023-08-14T09:23:33.974Z,32.90
2023-08-14T09:26:02.419Z,33.90
2023-08-14T09:28:30.809Z,31.50
2023-08-14T09:31:08.994Z,30.20
2023-08-14T09:33:38.753Z,29.70
2023-08-14T09:36:07.496Z,31.30
2023-08-14T09:38:36.072Z,32.50
2023-08-14T09:41:04.490Z,34.30
2023-08-14T09:43:34.235Z,35.90
2023-08-14T09:46:04.189Z,36.40
2023-08-14T09:48:44.389Z,35.00
2023-08-14T09:51:13.833Z,31.70
2023-08-14T09:53:46.718Z,29.60
2023-08-14T09:56:15.310Z,29.10
2023-08-14T09:58:43.893Z,29.10
2023-08-14T10:01:14.782Z,28.20
2023-08-14T10:03:47.548Z,27.20
2023-08-14T10:06:17.767Z,26.30
2023-08-14T10:08:46.874Z,28.20
2023-08-14T10:11:19.933Z,27.40
2023-08-14T10:13:54.166Z,26.70
2023-08-14T10:16:25.208Z,26.60
2023-08-14T10:18:57.170Z,26.90
2023-08-14T10:21:28.552Z,25.40
2023-08-14T10:24:00.484Z,25.20
2023-08-14T10:26:29.329Z,24.90
2023-08-14T10:28:58.578Z,24.50
2023-08-14T10:31:28.966Z,24.00
2023-08-14T10:34:00.090Z,24.00
2023-08-14T10:36:30.144Z,23.80
2023-08-14T10:39:08.681Z,24.30
2023-08-14T10:41:37.441Z,24.20
2023-08-14T10:44:09.833Z,24.20
2023-08-14T10:46:39.440Z,24.30
2023-08-14T10:49:09.450Z,23.10
2023-08-14T10:51:41.172Z,23.10
2023-08-14T10:54:14.793Z,22.80
2023-08-14T10:56:50.430Z,22.40
2023-08-14T10:59:28.025Z,22.60
2023-08-14T11:02:07.173Z,22.00
2023-08-14T11:04:37.977Z,21.80
2023-08-14T11:07:11.845Z,21.80
2023-08-14T11:09:41.281Z,20.90
2023-08-14T11:12:11.187Z,21.30
2023-08-14T11:14:41.284Z,21.90
2023-08-14T11:17:10.769Z,21.30
2023-08-14T11:19:41.143Z,20.50
2023-08-14T11:22:09.913Z,20.60
2023-08-14T11:24:39.291Z,21.50
2023-08-14T11:27:07.908Z,20.90
2023-08-14T11:29:45.022Z,20.60
2023-08-14T11:32:20.841Z,19.80
2023-08-14T11:34:51.753Z,19.80
2023-08-14T11:37:22.807Z,20.10
2023-08-14T11:39:51.516Z,19.90
2023-08-14T11:42:20.236Z,20.30
2023-08-14T11:44:48.967Z,20.90
2023-08-14T11:47:17.522Z,21.70
2023-08-14T11:49:46.327Z,21.30
2023-08-14T11:52:16.271Z,21.00
2023-08-14T11:54:46.135Z,20.60
2023-08-14T11:57:14.840Z,20.30
2023-08-14T11:59:44.659Z,20.70
2023-08-14T12:02:13.062Z,19.70
2023-08-14T12:04:42.298Z,19.60
2023-08-14T12:07:10.760Z,19.60
2023-08-14T12:09:40.655Z,19.80
2023-08-14T12:12:09.237Z,20.00
2023-08-14T12:14:41.081Z,20.40
2023-08-14T12:17:17.607Z,20.50
2023-08-14T12:19:52.157Z,20.50
2023-08-14T12:22:22.978Z,20.40
2023-08-14T12:24:53.168Z,20.90
2023-08-14T12:27:23.005Z,20.50
2023-08-14T12:29:52.999Z,21.10
2023-08-14T12:32:22.477Z,20.50
2023-08-14T12:34:51.530Z,20.70
2023-08-14T12:37:20.785Z,20.90
2023-08-14T12:39:52.420Z,21.00
2023-08-14T12:42:22.584Z,20.10
2023-08-14T12:44:55.126Z,20.10
2023-08-14T12:47:24.163Z,20.00
2023-08-14T12:49:52.759Z,19.60
2023-08-14T12:52:21.000Z,19.20
2023-08-14T12:54:49.368Z,20.20
2023-08-14T12:57:17.877Z,19.30
2023-08-14T12:59:50.734Z,18.80
2023-08-14T13:02:24.644Z,19.40
2023-08-14T13:04:57.800Z,19.40
2023-08-14T13:07:29.170Z,19.50
2023-08-14T13:09:57.605Z,19.30
2023-08-14T13:12:26.138Z,19.50
2023-08-14T13:14:58.771Z,19.00
2023-08-14T13:17:27.091Z,18.60
2023-08-14T13:19:55.519Z,19.70
2023-08-14T13:22:23.974Z,19.90
2023-08-14T13:24:52.494Z,19.30
2023-08-14T13:27:21.036Z,19.70
2023-08-14T13:29:49.486Z,19.80
2023-08-14T13:32:19.432Z,20.50
2023-08-14T13:34:47.877Z,20.30
2023-08-14T13:37:16.158Z,19.80
2023-08-14T13:39:44.970Z,20.30
2023-08-14T13:42:13.250Z,20.10
2023-08-14T13:44:41.441Z,19.90
2023-08-14T13:47:09.892Z,20.10
2023-08-14T13:49:40.160Z,20.70
2023-08-14T13:52:08.985Z,20.50
2023-08-14T13:54:37.263Z,20.30
2023-08-14T13:57:05.816Z,20.80
2023-08-14T13:59:34.037Z,21.70
2023-08-14T14:02:04.052Z,22.20
2023-08-14T14:04:32.627Z,22.30
2023-08-14T14:07:02.676Z,21.70
2023-08-14T14:09:31.057Z,21.50
2023-08-14T14:11:59.460Z,22.40
2023-08-14T14:14:27.808Z,22.60
2023-08-14T14:16:59.137Z,22.50
2023-08-14T14:19:28.100Z,21.90
2023-08-14T14:21:57.503Z,21.50
2023-08-14T14:24:27.762Z,21.30
2023-08-14T14:26:56.154Z,20.50
2023-08-14T14:29:24.906Z,20.90
2023-08-14T14:31:53.287Z,20.40
2023-08-14T14:34:21.725Z,20.10
2023-08-14T14:36:50.014Z,19.70
2023-08-14T14:39:19.201Z,19.80
2023-08-14T14:41:49.819Z,20.10
2023-08-14T14:44:18.408Z,19.90
2023-08-14T14:46:46.726Z,19.50
2023-08-14T14:49:15.101Z,19.50
2023-08-14T14:51:43.432Z,19.70
2023-08-14T14:54:11.795Z,19.30
2023-08-14T14:56:40.182Z,19.20
2023-08-14T14:59:09.817Z,19.30
2023-08-14T15:01:38.298Z,20.10
2023-08-14T15:04:06.762Z,20.80
2023-08-14T15:06:35.418Z,21.80
2023-08-14T15:09:03.828Z,21.50
2023-08-14T15:11:32.132Z,20.60
2023-08-14T15:14:00.348Z,20.60
2023-08-14T15:16:33.003Z,19.70
2023-08-14T15:19:01.756Z,19.40
2023-08-14T15:21:30.694Z,19.10
2023-08-14T15:23:59.178Z,18.90
2023-08-14T15:26:27.840Z,18.80
2023-08-14T15:28:56.116Z,19.20
2023-08-14T15:31:24.556Z,19.30
2023-08-14T15:33:54.306Z,19.30
2023-08-14T15:36:22.919Z,19.30
2023-08-14T15:38:51.227Z,19.20
2023-08-14T15:41:19.680Z,19.40
2023-08-14T15:43:48.126Z,19.90
2023-08-14T15:46:16.540Z,19.80
2023-08-14T15:48:46.003Z,20.20
2023-08-14T15:51:15.709Z,20.10
2023-08-14T15:53:44.286Z,20.40
2023-08-14T15:56:12.538Z,20.50
2023-08-14T15:58:40.798Z,20.40
2023-08-14T16:01:09.131Z,20.60
2023-08-14T16:03:37.954Z,21.30
2023-08-14T16:06:07.376Z,22.00
2023-08-14T16:08:37.149Z,22.20
2023-08-14T16:11:05.379Z,22.60
2023-08-14T16:13:34.139Z,23.30
2023-08-14T16:16:06.310Z,24.00
2023-08-14T16:18:35.433Z,24.00
2023-08-14T16:21:04.505Z,24.50
2023-08-14T16:23:32.927Z,24.60
2023-08-14T16:26:02.644Z,24.90
2023-08-14T16:28:31.040Z,25.20
2023-08-14T16:30:59.506Z,25.80
2023-08-14T16:33:27.837Z,25.80
2023-08-14T16:35:56.200Z,26.20
2023-08-14T16:38:24.527Z,26.60
2023-08-14T16:40:54.456Z,27.00
2023-08-14T16:43:24.079Z,27.20
2023-08-14T16:45:52.802Z,27.30
2023-08-14T16:48:21.267Z,27.60
2023-08-14T16:50:50.488Z,27.70
2023-08-14T16:53:18.767Z,27.70
2023-08-14T16:55:47.036Z,27.60
2023-08-14T16:58:15.348Z,27.70
2023-08-14T17:00:44.938Z,27.70
2023-08-14T17:03:13.552Z,27.80
2023-08-14T17:05:41.810Z,28.00
2023-08-14T17:08:10.365Z,28.20
2023-08-14T17:10:38.946Z,28.30
2023-08-14T17:13:07.255Z,28.70
2023-08-14T17:15:42.804Z,29.20
2023-08-14T17:18:12.573Z,29.30
2023-08-14T17:20:47.894Z,29.50
2023-08-14T17:23:19.655Z,29.90
2023-08-14T17:25:54.259Z,30.80
2023-08-14T17:28:25.095Z,31.30
2023-08-14T17:30:56.871Z,31.70
2023-08-14T17:33:28.562Z,32.10
2023-08-14T17:35:57.023Z,33.50
2023-08-14T17:38:25.322Z,34.30
2023-08-14T17:40:53.627Z,35.90
2023-08-14T17:43:22.045Z,37.40
2023-08-14T17:45:53.178Z,38.30
2023-08-14T17:48:21.533Z,39.80
2023-08-14T17:50:54.513Z,42.70
2023-08-14T17:53:23.380Z,45.70
2023-08-14T17:55:51.605Z,50.00
2023-08-14T17:58:20.588Z,54.90
2023-08-14T18:00:49.623Z,59.30
2023-08-14T18:03:18.581Z,64.60
2023-08-14T18:05:51.396Z,67.10
2023-08-14T18:08:21.870Z,70.70
2023-08-14T18:10:50.233Z,76.70
2023-08-14T18:13:18.605Z,78.00
2023-08-14T18:15:47.148Z,77.00
2023-08-14T18:18:15.486Z,77.90
2023-08-14T18:20:43.923Z,80.40
2023-08-14T18:23:12.649Z,80.50
2023-08-14T18:25:43.695Z,80.60
2023-08-14T18:28:12.124Z,86.70
2023-08-14T18:30:43.132Z,89.70
2023-08-14T18:33:12.635Z,90.90
2023-08-14T18:35:40.972Z,93.30
2023-08-14T18:38:10.312Z,95.10
2023-08-14T18:40:39.067Z,96.90
2023-08-14T18:43:08.661Z,98.60
2023-08-14T18:45:37.116Z,99.90
2023-08-14T18:48:05.571Z,99.90
2023-08-14T18:50:33.806Z,99.90
2023-08-14T18:53:02.781Z,99.90
2023-08-14T18:55:31.071Z,99.90
2023-08-14T18:57:59.329Z,99.90
2023-08-14T19:00:29.356Z,99.90
2023-08-14T19:02:57.637Z,99.90
2023-08-14T19:05:25.918Z,99.90
2023-08-14T19:07:54.168Z,99.90
2023-08-14T19:10:22.366Z,99.90
2023-08-14T19:12:51.718Z,99.90
2023-08-14T19:15:20.100Z,99.90
2023-08-14T19:17:50.017Z,99.90
2023-08-14T19:20:18.529Z,99.90
2023-08-14T19:22:46.808Z,99.90
2023-08-14T19:25:16.158Z,99.90
2023-08-14T19:27:44.440Z,99.90
2023-08-14T19:30:14.118Z,99.90
2023-08-14T19:32:43.219Z,99.90
2023-08-14T19:35:12.864Z,99.90
2023-08-14T19:37:41.141Z,99.90
2023-08-14T19:40:12.002Z,99.90
2023-08-14T19:42:43.009Z,99.90
2023-08-14T19:45:12.452Z,99.90
2023-08-14T19:47:40.795Z,99.90
2023-08-14T19:50:09.579Z,99.90
2023-08-14T19:52:39.187Z,99.90
2023-08-14T19:55:08.769Z,99.90
2023-08-14T19:57:37.060Z,99.90
2023-08-14T20:00:06.459Z,99.90
2023-08-14T20:02:34.706Z,99.90
2023-08-14T20:05:05.807Z,99.90
2023-08-14T20:07:34.108Z,99.90
2023-08-14T20:10:04.408Z,99.90
2023-08-14T20:12:32.577Z,99.90
2023-08-14T20:15:01.030Z,99.90
2023-08-14T20:17:29.772Z,99.90
2023-08-14T20:19:58.105Z,99.90
2023-08-14T20:22:26.327Z,99.90
2023-08-14T20:24:54.615Z,99.90
2023-08-14T20:27:24.306Z,99.90
2023-08-14T20:29:52.573Z,99.90
2023-08-14T20:32:23.588Z,99.90
2023-08-14T20:34:51.812Z,99.90
2023-08-14T20:37:20.425Z,99.90
2023-08-14T20:39:48.884Z,99.90
2023-08-14T20:42:17.270Z,99.90
2023-08-14T20:44:46.935Z,99.90
2023-08-14T20:47:15.203Z,99.90
2023-08-14T20:49:43.446Z,99.90
2023-08-14T20:52:11.648Z,99.90
2023-08-14T20:54:40.083Z,99.90
2023-08-14T20:57:08.379Z,99.90
2023-08-14T20:59:37.291Z,99.90
2023-08-14T21:02:06.991Z,99.90
2023-08-14T21:04:36.614Z,99.90
2023-08-14T21:07:05.382Z,99.90
2023-08-14T21:09:33.631Z,99.90
2023-08-14T21:12:01.893Z,99.90
2023-08-14T21:14:30.136Z,99.90
2023-08-14T21:16:58.386Z,99.90
2023-08-14T21:19:27.997Z,99.90
2023-08-14T21:21:56.229Z,99.90
2023-08-14T21:24:24.513Z,99.90
2023-08-14T21:26:52.770Z,99.90
2023-08-14T21:29:21.090Z,99.90
2023-08-14T21:31:49.434Z,99.90
2023-08-14T21:34:18.026Z,99.90
2023-08-14T21:36:47.638Z,99.90
2023-08-14T21:39:16.924Z,99.90
2023-08-14T21:41:45.240Z,99.90
2023-08-14T21:44:13.546Z,99.90
2023-08-14T21:46:44.514Z,99.90
2023-08-14T21:49:13.451Z,99.90
2023-08-14T21:51:41.767Z,99.90
2023-08-14T21:54:13.057Z,99.90
2023-08-14T21:56:41.371Z,99.90
2023-08-14T21:59:09.605Z,99.90
2023-08-14T22:01:37.854Z,99.90
2023-08-14T22:04:06.624Z,99.90
2023-08-14T22:06:34.879Z,99.90
2023-08-14T22:09:03.179Z,99.90
2023-08-14T22:11:33.438Z,99.90
2023-08-14T22:14:01.686Z,99.90
2023-08-14T22:16:30.044Z,99.90
2023-08-14T22:18:58.329Z,99.90
2023-08-14T22:21:26.626Z,99.90
2023-08-14T22:23:54.871Z,99.90
2023-08-14T22:26:23.107Z,99.90
2023-08-14T22:28:52.757Z,99.90
2023-08-14T22:31:21.113Z,99.90
2023-08-14T22:33:49.400Z,99.90
2023-08-14T22:36:17.675Z,99.90
2023-08-14T22:38:46.038Z,99.90
2023-08-14T22:41:14.331Z,99.90
2023-08-14T22:43:42.662Z,99.90
2023-08-14T22:46:12.319Z,99.90
2023-08-14T22:48:40.594Z,99.90
2023-08-14T22:51:08.993Z,99.90
2023-08-14T22:53:37.226Z,99.90
2023-08-14T22:56:06.056Z,99.90
2023-08-14T22:58:34.261Z,99.90
2023-08-14T23:01:02.562Z,99.90
2023-08-14T23:03:32.216Z,99.90
2023-08-14T23:06:00.511Z,99.90
2023-08-14T23:08:28.745Z,99.90
2023-08-14T23:10:57.067Z,99.90
2023-08-14T23:13:25.282Z,99.90
2023-08-14T23:15:53.597Z,99.90
2023-08-14T23:18:21.914Z,99.90
2023-08-14T23:20:51.713Z,99.90
2023-08-14T23:23:19.971Z,99.90
2023-08-14T23:25:48.221Z,99.90
2023-08-14T23:28:16.468Z,99.90
2023-08-14T23:30:44.644Z,99.90
2023-08-14T23:33:12.950Z,99.90
2023-08-14T23:35:41.200Z,99.90
2023-08-14T23:38:10.808Z,99.90
2023-08-14T23:40:39.049Z,99.90
2023-08-14T23:43:07.287Z,99.90
2023-08-14T23:45:35.585Z,99.90
2023-08-14T23:48:04.031Z,99.90
2023-08-14T23:50:32.514Z,99.90
2023-08-14T23:53:00.815Z,99.90
2023-08-14T23:55:30.426Z,99.90
2023-08-14T23:57:58.641Z,99.90
